State Airport

About
Name: State Airport
Identifier:  HES/KHRI
Serves:  Hermiston, Oregon
Owner:  City of Hermiston
Public/Private:  Public
Local Time:  17. Aug 22:26 PDT
Description: Hermiston Municipal Airport is a city-owned, public-use airport located two nautical miles southeast of the central business district of Hermiston, in Umatilla County, Oregon, United States.
Source: Wikipedia
Location
Runways
Identifier Length (m/ft) Surface
5/23 4,500/4,500 Asphalt
Flights per Day
0 flights
Distance: 187km (116mi)
Punctuality
50% (0 flights per day delayed)
Delay Average: 76 minutes
Current Weather
 21 C (Humidity: 52%)
  8kt (14km/h / 9mph) from 220°
  16km (10 mi.)
 
 METAR KHRI 180453Z AUTO 22008KT 10SM CLR 21/11 A2979 RMK AO2 SLP082 T02110106 $

Current Flights

Departures
Number Departure To Airline
Arrivals
Number Arrival From Airline

Current Delays

Departures
N/A
Arrivals
N/A

Destinations

Top Destinations
Airport Flights
per week
Seats
per week
  Portland (PDX) 6 - 0 0
  La Grande (LGD) 5 - 0 0
  Redding (RDD) 1 - 0 0
  Denver (APA) 0 - 0 0
  Bozeman (BZN) 0 - 0 0
  Idaho Falls (IDA) 0 - 0 0
  Winnemucca (WMC) 0 - 0 0

Airlines & Planes

Top Airlines
Airline Flights
per Day
Seats
per Day
  Ameriflight 1 -
  Nolinor Aviation 0 -
Jet Charter Inc ( Franklin Lakes Nj ) 0 -
Top Plane Types
Model Flights Seats
Beech 1900D 1.7/day - 0
Beech C-99 Airliner 0.1/day - 0
Beech E90 King Air 0.1/day - 0
Pilatus PC-12 0.1/day - 0
Beech B200 Super King Air 0.0/day - 0